Time;durP1;ratioP1;P1;durP2;ratioP2;P2;SDS_P1;SDS_P2;PMS_P1;PMS_P2;Temp;Humidity;BMP_temperature;BMP_pressure;BME280_temperature;BME280_humidity;BME280_pressure;Samples;Min_cycle;Max_cycle;Signal;HPM_P1;HPM_P2
2023/04/29 00:00:43;;;;;;;20.73;13.60;;;9.10;99.90;;;;;;5135780;27;20120;-69
2023/04/29 00:03:09;;;;;;;25.02;17.15;;;9.20;99.90;;;;;;5127122;27;20047;-69
2023/04/29 00:05:34;;;;;;;26.02;17.50;;;9.10;99.90;;;;;;5134220;27;20417;-69
2023/04/29 00:08:00;;;;;;;24.27;16.33;;;8.90;99.90;;;;;;5134818;27;20130;-69
2023/04/29 00:10:26;;;;;;;24.35;16.05;;;9.20;99.90;;;;;;5130474;27;20109;-69
2023/04/29 00:12:52;;;;;;;22.98;15.13;;;9.10;99.90;;;;;;5129390;27;20544;-69
2023/04/29 00:15:17;;;;;;;22.27;14.07;;;9.00;99.90;;;;;;5131106;27;20042;-69
2023/04/29 00:17:44;;;;;;;18.70;12.15;;;9.00;99.90;;;;;;5132099;27;20038;-69
2023/04/29 00:20:11;;;;;;;20.90;13.50;;;9.10;99.90;;;;;;5118744;27;20050;-69
2023/04/29 00:22:37;;;;;;;17.02;11.20;;;9.10;99.90;;;;;;5143107;27;20070;-69
2023/04/29 00:25:04;;;;;;;16.48;10.55;;;8.90;99.90;;;;;;5112372;27;20122;-69
2023/04/29 00:27:31;;;;;;;14.90;10.98;;;9.00;99.90;;;;;;5129281;27;20054;-69
2023/04/29 00:29:57;;;;;;;19.75;11.90;;;8.90;99.90;;;;;;5137317;27;20046;-69
2023/04/29 00:32:22;;;;;;;13.27;8.13;;;8.90;99.90;;;;;;5115369;27;20113;-68
2023/04/29 00:34:48;;;;;;;16.92;10.93;;;9.00;99.90;;;;;;5135641;27;20389;-69
2023/04/29 00:37:14;;;;;;;19.85;12.15;;;8.90;99.90;;;;;;5144816;27;20038;-69
2023/04/29 00:39:39;;;;;;;16.73;11.57;;;8.90;99.90;;;;;;5134858;27;20069;-69
2023/04/29 00:42:06;;;;;;;15.60;11.30;;;9.00;99.90;;;;;;5131438;27;20046;-68
2023/04/29 00:44:31;;;;;;;19.95;13.07;;;9.00;99.90;;;;;;5131089;27;20609;-69
2023/04/29 00:46:58;;;;;;;18.63;13.82;;;8.80;99.90;;;;;;5129165;27;20087;-68
2023/04/29 00:49:23;;;;;;;;;;;9.00;99.90;;;;;;5138689;27;20050;-69
2023/04/29 00:51:49;;;;;;;17.13;10.85;;;9.00;99.90;;;;;;5135689;27;19919;-68
2023/04/29 00:54:16;;;;;;;17.48;11.23;;;8.90;99.90;;;;;;5134958;27;20554;-68
2023/04/29 00:56:45;;;;;;;15.23;11.50;;;8.90;99.90;;;;;;5130582;27;20043;-69
2023/04/29 00:59:11;;;;;;;14.57;10.13;;;8.80;99.90;;;;;;5120105;27;20066;-68
2023/04/29 01:01:38;;;;;;;11.18;9.20;;;8.90;99.90;;;;;;5115521;27;20126;-68
2023/04/29 01:04:05;;;;;;;16.63;10.43;;;8.90;99.90;;;;;;5134188;27;20050;-68
2023/04/29 01:07:05;;;;;;;14.02;9.85;;;8.90;99.90;;;;;;5131121;27;20402;-68
2023/04/29 01:09:54;;;;;;;15.82;10.50;;;8.80;99.90;;;;;;5133815;27;20042;-69
2023/04/29 01:12:37;;;;;;;12.73;9.25;;;8.90;99.90;;;;;;5133436;27;20063;-69
2023/04/29 01:15:05;;;;;;;11.73;9.00;;;8.90;99.90;;;;;;5130547;27;20044;-69
2023/04/29 01:17:40;;;;;;;9.55;8.02;;;8.90;99.90;;;;;;5144199;27;20035;-69
2023/04/29 01:20:07;;;;;;;15.40;9.80;;;8.80;99.90;;;;;;5132901;27;20041;-69
2023/04/29 01:22:33;;;;;;;13.55;10.35;;;8.80;99.90;;;;;;5122013;27;20039;-69
2023/04/29 01:24:59;;;;;;;11.20;7.78;;;8.80;99.90;;;;;;5131072;27;20038;-69
2023/04/29 01:27:33;;;;;;;11.07;7.90;;;8.90;99.90;;;;;;5101654;27;20046;-69
2023/04/29 01:30:10;;;;;;;13.57;8.55;;;8.90;99.90;;;;;;5135454;27;20517;-69
2023/04/29 01:33:06;;;;;;;14.63;10.45;;;8.80;99.90;;;;;;5134528;27;20039;-69
2023/04/29 01:35:41;;;;;;;14.07;10.75;;;8.80;99.90;;;;;;5097520;27;20046;-69
2023/04/29 01:38:22;;;;;;;10.55;8.48;;;8.80;99.90;;;;;;5128274;27;20159;-69
2023/04/29 01:40:58;;;;;;;10.88;7.50;;;8.70;99.90;;;;;;5129343;27;20046;-69
2023/04/29 01:43:29;;;;;;;13.63;9.98;;;8.70;99.90;;;;;;5125987;27;20044;-69
2023/04/29 01:45:56;;;;;;;11.93;8.77;;;8.70;99.90;;;;;;5115930;27;20047;-69
2023/04/29 01:48:23;;;;;;;11.25;8.18;;;8.70;99.90;;;;;;5131932;27;20043;-69
2023/04/29 01:50:49;;;;;;;13.32;9.82;;;8.80;99.90;;;;;;5138927;27;20078;-69
2023/04/29 01:53:15;;;;;;;13.30;10.05;;;8.70;99.90;;;;;;5108540;27;20127;-69
2023/04/29 01:55:42;;;;;;;13.15;10.57;;;8.60;99.90;;;;;;5129823;27;20112;-69
2023/04/29 01:58:09;;;;;;;11.13;8.20;;;8.50;99.90;;;;;;5134382;27;20047;-69
2023/04/29 02:00:36;;;;;;;15.23;10.15;;;8.40;99.90;;;;;;5116260;27;20050;-69
2023/04/29 02:03:02;;;;;;;18.15;12.32;;;8.40;99.90;;;;;;5121225;27;20490;-69
2023/04/29 02:05:32;;;;;;;14.82;10.32;;;8.40;99.90;;;;;;5133699;27;20045;-69
2023/04/29 02:07:59;;;;;;;13.13;9.07;;;8.30;99.90;;;;;;5139105;27;20514;-69
2023/04/29 02:10:25;;;;;;;14.10;10.73;;;8.20;99.90;;;;;;5136713;27;20043;-69
2023/04/29 02:12:50;;;;;;;14.95;10.07;;;8.20;99.90;;;;;;5116231;27;20090;-69
2023/04/29 02:15:16;;;;;;;13.45;9.70;;;8.20;99.90;;;;;;5129039;27;20438;-69
2023/04/29 02:17:42;;;;;;;15.07;10.60;;;8.10;99.90;;;;;;5128186;27;20470;-69
2023/04/29 02:20:09;;;;;;;15.38;10.70;;;8.10;99.90;;;;;;5127368;27;20073;-69
2023/04/29 02:22:34;;;;;;;13.52;9.52;;;8.10;99.90;;;;;;5140731;27;20092;-68
2023/04/29 02:25:00;;;;;;;12.70;9.40;;;8.10;99.90;;;;;;5122362;27;20039;-69
2023/04/29 02:27:26;;;;;;;12.65;9.48;;;8.00;99.90;;;;;;5132968;27;20454;-69
2023/04/29 02:29:52;;;;;;;16.80;10.30;;;8.00;99.90;;;;;;5130133;27;20043;-69
2023/04/29 02:32:19;;;;;;;13.13;9.65;;;8.00;99.90;;;;;;5112869;27;20047;-69
2023/04/29 02:34:45;;;;;;;15.00;10.02;;;8.10;99.90;;;;;;5137736;27;20058;-69
2023/04/29 02:37:11;;;;;;;10.98;7.93;;;8.00;99.90;;;;;;5133164;27;20537;-69
2023/04/29 02:39:37;;;;;;;13.88;10.43;;;8.10;99.90;;;;;;5115271;27;20118;-69
2023/04/29 02:42:03;;;;;;;16.23;10.80;;;8.10;99.90;;;;;;5134157;27;20035;-69
2023/04/29 02:44:30;;;;;;;13.68;9.27;;;8.10;99.90;;;;;;5130729;27;20058;-69
2023/04/29 02:46:56;;;;;;;13.00;9.05;;;7.90;99.90;;;;;;5131447;27;20120;-69
2023/04/29 02:49:22;;;;;;;13.70;9.50;;;8.10;99.90;;;;;;5114887;27;20049;-69
2023/04/29 02:51:51;;;;;;;12.35;8.55;;;8.10;99.90;;;;;;5138888;27;20381;-69
2023/04/29 02:54:16;;;;;;;13.77;8.95;;;8.00;99.90;;;;;;5130184;27;20856;-69
2023/04/29 02:56:43;;;;;;;11.35;8.40;;;8.10;99.90;;;;;;5135527;27;20096;-69
2023/04/29 02:59:09;;;;;;;16.00;9.32;;;8.20;99.90;;;;;;5131658;27;20072;-69
2023/04/29 03:01:34;;;;;;;11.05;8.23;;;8.10;99.90;;;;;;5141008;27;20046;-69
2023/04/29 03:04:00;;;;;;;12.85;9.07;;;8.10;99.90;;;;;;5100897;27;20070;-69
2023/04/29 03:06:26;;;;;;;15.05;10.02;;;8.20;99.90;;;;;;5143276;27;20038;-69
2023/04/29 03:08:52;;;;;;;15.50;9.93;;;8.20;99.90;;;;;;5131567;27;20046;-69
2023/04/29 03:11:18;;;;;;;;;;;8.30;99.90;;;;;;5137406;27;20062;-69
2023/04/29 03:13:44;;;;;;;16.77;11.70;;;8.30;99.90;;;;;;5130755;27;20460;-68
2023/04/29 03:16:13;;;;;;;15.27;9.90;;;8.30;99.90;;;;;;5133668;27;20054;-68
2023/04/29 03:18:39;;;;;;;13.93;10.30;;;8.40;99.90;;;;;;5114130;27;20078;-68
2023/04/29 03:21:05;;;;;;;17.55;10.57;;;8.40;99.90;;;;;;5131195;27;20502;-68
2023/04/29 03:23:31;;;;;;;15.23;11.27;;;8.30;99.90;;;;;;5120450;27;20059;-68
2023/04/29 03:25:56;;;;;;;17.50;11.55;;;8.50;99.90;;;;;;5138551;27;20134;-69
2023/04/29 03:28:22;;;;;;;15.27;10.07;;;8.50;99.90;;;;;;5143516;27;20042;-69
2023/04/29 03:30:48;;;;;;;14.20;9.90;;;8.40;99.90;;;;;;5132653;27;20114;-69
2023/04/29 03:33:14;;;;;;;15.52;9.40;;;8.60;99.90;;;;;;5136311;27;20435;-68
2023/04/29 03:35:39;;;;;;;13.93;9.60;;;8.60;99.90;;;;;;5131733;27;20039;-68
2023/04/29 03:38:05;;;;;;;14.23;9.15;;;8.60;99.90;;;;;;5130781;27;20051;-69
2023/04/29 03:40:31;;;;;;;14.95;10.15;;;8.60;99.90;;;;;;5136764;27;20109;-69
2023/04/29 03:42:57;;;;;;;15.73;10.40;;;8.50;99.90;;;;;;5102932;27;20043;-68
2023/04/29 03:45:22;;;;;;;13.88;9.82;;;8.60;99.90;;;;;;5113492;27;20506;-69
2023/04/29 03:47:48;;;;;;;12.80;9.43;;;8.70;99.90;;;;;;5143601;27;20047;-68
2023/04/29 03:50:14;;;;;;;10.82;8.73;;;8.70;99.90;;;;;;5124392;27;20039;-69
2023/04/29 03:52:40;;;;;;;15.60;9.48;;;8.50;99.90;;;;;;5115968;27;20454;-69
2023/04/29 03:55:06;;;;;;;13.50;8.35;;;8.60;99.90;;;;;;5135249;27;20071;-69
2023/04/29 03:57:31;;;;;;;13.45;8.50;;;8.70;99.90;;;;;;5134225;27;20389;-68
2023/04/29 03:59:57;;;;;;;12.90;8.05;;;8.60;99.90;;;;;;5148508;27;20045;-69
2023/04/29 04:02:23;;;;;;;13.90;8.50;;;8.60;99.90;;;;;;5124393;27;20125;-68
2023/04/29 04:04:49;;;;;;;14.95;9.38;;;8.60;99.90;;;;;;5129568;27;20047;-69
2023/04/29 04:07:15;;;;;;;12.32;8.88;;;8.60;99.90;;;;;;5118031;27;20043;-68
2023/04/29 04:09:40;;;;;;;21.25;9.57;;;8.70;99.90;;;;;;5109166;27;20454;-68
2023/04/29 04:12:06;;;;;;;14.25;9.00;;;8.70;99.90;;;;;;5112406;27;20038;-69
2023/04/29 04:14:32;;;;;;;20.08;10.52;;;8.70;99.90;;;;;;5122141;27;20046;-69
2023/04/29 04:16:58;;;;;;;15.27;8.70;;;8.60;99.90;;;;;;5127625;27;20121;-68
2023/04/29 04:19:23;;;;;;;12.70;8.13;;;8.60;99.90;;;;;;5134532;27;20090;-69
2023/04/29 04:21:49;;;;;;;15.65;9.30;;;8.70;99.90;;;;;;5132146;27;20460;-68
2023/04/29 04:24:15;;;;;;;11.80;8.32;;;8.60;99.90;;;;;;5126080;27;20149;-69
2023/04/29 04:26:41;;;;;;;11.98;7.93;;;8.60;99.90;;;;;;5113867;27;20472;-69
2023/04/29 04:29:07;;;;;;;15.93;10.18;;;8.60;99.90;;;;;;5127007;27;20040;-69
2023/04/29 04:31:33;;;;;;;15.82;9.63;;;8.60;99.90;;;;;;5130744;27;20042;-69
2023/04/29 04:33:59;;;;;;;12.10;7.47;;;8.70;99.90;;;;;;5132581;27;20049;-69
2023/04/29 04:36:24;;;;;;;14.15;8.00;;;8.60;99.90;;;;;;5132439;27;20118;-69
2023/04/29 04:38:50;;;;;;;11.48;8.00;;;8.70;99.90;;;;;;5136494;27;20115;-69
2023/04/29 04:41:16;;;;;;;19.05;8.70;;;8.70;99.90;;;;;;5133891;27;20039;-69
2023/04/29 04:43:42;;;;;;;15.20;9.50;;;8.70;99.90;;;;;;5106389;27;20042;-69
2023/04/29 04:46:15;;;;;;;12.27;7.93;;;8.70;99.90;;;;;;5137502;27;20070;-69
2023/04/29 04:48:41;;;;;;;14.25;8.48;;;8.70;99.90;;;;;;5131824;27;20558;-69
2023/04/29 04:51:10;;;;;;;10.65;6.60;;;8.70;99.90;;;;;;5119603;27;20098;-69
2023/04/29 04:53:36;;;;;;;10.90;7.93;;;8.70;99.90;;;;;;5131842;27;20093;-69
2023/04/29 04:56:02;;;;;;;12.32;6.55;;;8.70;99.90;;;;;;5135464;27;20447;-70
2023/04/29 04:58:29;;;;;;;9.27;5.93;;;8.70;99.90;;;;;;5142409;27;20039;-69
2023/04/29 05:00:55;;;;;;;10.73;6.90;;;8.70;99.90;;;;;;5134374;27;20657;-69
2023/04/29 05:03:21;;;;;;;13.45;7.00;;;8.70;99.90;;;;;;5137820;27;20039;-69
2023/04/29 05:05:56;;;;;;;9.18;6.00;;;8.70;99.90;;;;;;5140100;27;20360;-69
2023/04/29 05:08:22;;;;;;;10.60;6.82;;;8.70;99.90;;;;;;5136381;27;20128;-69
2023/04/29 05:10:47;;;;;;;15.13;7.93;;;8.70;99.90;;;;;;5134117;27;20123;-68
2023/04/29 05:13:13;;;;;;;8.07;5.97;;;8.70;99.90;;;;;;5130707;27;20499;-68
2023/04/29 05:15:39;;;;;;;11.25;7.43;;;8.70;99.90;;;;;;5133081;27;20042;-69
2023/04/29 05:18:05;;;;;;;9.07;6.15;;;8.80;99.90;;;;;;5133341;27;20428;-69
2023/04/29 05:20:30;;;;;;;9.95;7.20;;;8.70;99.90;;;;;;5129874;27;20443;-69
2023/04/29 05:22:56;;;;;;;10.30;7.80;;;8.80;99.90;;;;;;5121212;27;20123;-69
2023/04/29 05:25:22;;;;;;;12.55;7.65;;;8.80;99.90;;;;;;5110761;27;20046;-69
2023/04/29 05:27:47;;;;;;;12.00;7.75;;;8.90;99.90;;;;;;5142179;27;20042;-69
2023/04/29 05:30:14;;;;;;;14.15;7.50;;;8.80;99.90;;;;;;5133106;27;20039;-69
2023/04/29 05:32:40;;;;;;;14.20;7.50;;;8.90;99.90;;;;;;5135090;27;20090;-69
2023/04/29 05:35:06;;;;;;;12.60;7.63;;;8.80;99.90;;;;;;5132363;27;20054;-69
2023/04/29 05:37:32;;;;;;;10.95;7.38;;;8.90;99.90;;;;;;5146096;27;20046;-69
2023/04/29 05:39:58;;;;;;;13.30;8.18;;;8.90;99.90;;;;;;5132319;27;20798;-69
2023/04/29 05:42:25;;;;;;;10.80;7.68;;;8.90;99.90;;;;;;5144913;27;20133;-69
2023/04/29 05:44:50;;;;;;;8.77;6.20;;;9.00;99.90;;;;;;5144375;27;20494;-69
2023/04/29 05:47:16;;;;;;;10.43;6.45;;;9.00;99.90;;;;;;5140254;27;20057;-69
2023/04/29 05:49:42;;;;;;;11.48;7.10;;;9.10;99.90;;;;;;5136508;27;20508;-69
2023/04/29 05:52:07;;;;;;;11.90;7.47;;;9.10;99.90;;;;;;5133805;27;20051;-69
2023/04/29 05:54:34;;;;;;;8.05;6.28;;;9.10;99.90;;;;;;5125503;27;20494;-69
2023/04/29 05:57:04;;;;;;;12.90;8.10;;;9.10;99.90;;;;;;5111481;27;20038;-69
2023/04/29 05:59:30;;;;;;;10.50;6.68;;;9.20;99.90;;;;;;5129204;27;20039;-69
2023/04/29 06:01:57;;;;;;;8.48;6.60;;;9.20;99.90;;;;;;5129552;27;20031;-69
2023/04/29 06:04:23;;;;;;;;;;;9.30;99.90;;;;;;5127727;27;20076;-69
2023/04/29 06:06:53;;;;;;;11.20;6.70;;;9.20;99.90;;;;;;5126159;27;19915;-69
2023/04/29 06:09:19;;;;;;;8.05;6.10;;;9.30;99.90;;;;;;5124954;27;20057;-69
2023/04/29 06:11:46;;;;;;;11.18;6.97;;;9.20;99.90;;;;;;5125747;27;20031;-69
2023/04/29 06:14:12;;;;;;;9.27;6.38;;;9.20;99.90;;;;;;5128527;27;20519;-70
2023/04/29 06:16:38;;;;;;;9.85;6.85;;;9.20;99.90;;;;;;5131611;27;20443;-70
2023/04/29 06:19:04;;;;;;;8.82;6.35;;;9.30;99.90;;;;;;5129940;27;20058;-68
2023/04/29 06:21:30;;;;;;;11.15;7.03;;;9.40;99.90;;;;;;5121789;27;20521;-69
2023/04/29 06:23:56;;;;;;;11.07;8.20;;;9.60;99.90;;;;;;5127513;27;20082;-69
2023/04/29 06:26:22;;;;;;;9.18;6.15;;;10.00;99.90;;;;;;5143349;27;20046;-69
2023/04/29 06:28:48;;;;;;;9.35;7.10;;;10.50;99.90;;;;;;5129489;27;20035;-69
2023/04/29 06:31:15;;;;;;;10.07;6.65;;;10.80;99.90;;;;;;5115040;27;20077;-70
2023/04/29 06:33:40;;;;;;;;;;;11.10;99.90;;;;;;5111156;28;20692;-69
2023/04/29 06:36:06;;;;;;;9.15;5.90;;;11.40;99.90;;;;;;5112555;27;19939;-69
2023/04/29 06:38:32;;;;;;;9.05;6.20;;;11.60;99.90;;;;;;5097067;27;20656;-69
2023/04/29 06:41:01;;;;;;;10.10;6.38;;;11.70;99.90;;;;;;5128161;27;20043;-68
2023/04/29 06:43:27;;;;;;;9.18;6.45;;;11.60;99.90;;;;;;5129506;27;20745;-68
2023/04/29 06:45:52;;;;;;;10.23;6.28;;;11.60;99.90;;;;;;5128222;27;20547;-68
2023/04/29 06:48:18;;;;;;;10.38;6.07;;;11.50;99.90;;;;;;5111484;27;20043;-68
2023/04/29 06:50:55;;;;;;;9.55;5.55;;;11.60;99.90;;;;;;5129300;27;20099;-68
2023/04/29 06:53:21;;;;;;;;;;;11.90;99.90;;;;;;5129818;27;20047;-68
2023/04/29 06:55:47;;;;;;;9.02;5.75;;;11.90;99.90;;;;;;5112803;27;20007;-68
2023/04/29 06:58:14;;;;;;;9.10;6.93;;;12.00;99.90;;;;;;5112776;27;20046;-68
2023/04/29 07:00:43;;;;;;;8.32;6.20;;;12.10;99.90;;;;;;5132314;27;20027;-68
2023/04/29 07:03:09;;;;;;;6.00;4.78;;;12.20;99.90;;;;;;5130668;27;20398;-68
2023/04/29 07:05:36;;;;;;;7.55;5.38;;;12.50;99.90;;;;;;5130222;27;20087;-69
2023/04/29 07:08:02;;;;;;;8.55;5.80;;;12.60;99.90;;;;;;5130605;27;20053;-68
2023/04/29 07:10:28;;;;;;;8.40;5.68;;;12.40;99.90;;;;;;5130644;27;20043;-68
2023/04/29 07:12:54;;;;;;;7.95;5.05;;;12.50;99.90;;;;;;5113963;27;20386;-68
2023/04/29 07:15:19;;;;;;;6.05;5.07;;;12.70;99.90;;;;;;5130382;27;20055;-68
2023/04/29 07:17:45;;;;;;;8.07;4.82;;;12.40;99.90;;;;;;5130654;27;20047;-68
2023/04/29 07:20:11;;;;;;;5.63;4.30;;;12.40;99.90;;;;;;5130688;27;20402;-72
2023/04/29 07:22:37;;;;;;;8.25;4.93;;;12.50;99.90;;;;;;5130403;27;20055;-72
2023/04/29 07:25:03;;;;;;;8.40;4.88;;;12.80;99.90;;;;;;5113176;27;20042;-72
2023/04/29 07:27:29;;;;;;;5.97;4.57;;;12.60;99.90;;;;;;5130596;27;20049;-73
2023/04/29 07:29:55;;;;;;;9.23;5.25;;;12.70;99.90;;;;;;5130396;27;20065;-73
2023/04/29 07:32:21;;;;;;;5.43;3.97;;;12.50;64.40;;;;;;5130927;27;20482;-72
2023/04/29 07:34:47;;;;;;;5.25;4.30;;;12.70;92.70;;;;;;5131712;27;20054;-73
2023/04/29 07:37:13;;;;;;;9.02;4.65;;;12.70;18.50;;;;;;5131711;27;20043;-72
2023/04/29 07:39:41;;;;;;;6.93;4.60;;;12.70;1.00;;;;;;5130263;27;20046;-72
2023/04/29 07:42:06;;;;;;;5.85;4.07;;;12.70;1.00;;;;;;5113515;27;20431;-73
2023/04/29 07:44:32;;;;;;;6.40;3.72;;;12.90;58.70;;;;;;5129989;27;20068;-73
2023/04/29 07:46:58;;;;;;;6.35;3.70;;;12.90;1.00;;;;;;5129903;27;20544;-72
2023/04/29 07:49:25;;;;;;;6.85;3.97;;;12.90;1.00;;;;;;5130117;27;20035;-72
2023/04/29 07:51:50;;;;;;;9.30;4.63;;;12.90;28.00;;;;;;5131504;27;20490;-72
2023/04/29 07:54:18;;;;;;;5.95;3.65;;;12.80;1.00;;;;;;5131536;27;20517;-73
2023/04/29 07:56:44;;;;;;;7.53;3.95;;;12.70;3.80;;;;;;5130589;28;20123;-72
2023/04/29 07:59:10;;;;;;;;;;;12.90;70.40;;;;;;5130649;28;20047;-72
2023/04/29 08:01:35;;;;;;;7.80;4.20;;;12.90;45.70;;;;;;5129950;27;19926;-73
2023/04/29 08:04:01;;;;;;;5.80;3.80;;;12.80;1.00;;;;;;5129652;28;20130;-72
2023/04/29 08:06:27;;;;;;;6.90;3.50;;;13.00;26.10;;;;;;5129810;28;20424;-73
2023/04/29 08:08:55;;;;;;;6.50;4.10;;;13.00;3.30;;;;;;5131135;27;20499;-72
2023/04/29 08:11:23;;;;;;;6.97;4.15;;;12.80;1.00;;;;;;5129995;28;20047;-72
2023/04/29 08:13:49;;;;;;;4.97;3.70;;;12.90;29.40;;;;;;5129980;28;20051;-73
2023/04/29 08:16:15;;;;;;;;;;;12.90;1.00;;;;;;5133023;27;20159;-72
2023/04/29 08:18:41;;;;;;;6.78;3.88;;;12.90;1.00;;;;;;5133867;27;20004;-72
2023/04/29 08:21:08;;;;;;;5.18;3.28;;;12.90;1.00;;;;;;5134331;27;20069;-73
2023/04/29 08:23:34;;;;;;;4.72;3.38;;;13.20;1.00;;;;;;5133907;27;20079;-72
2023/04/29 08:26:00;;;;;;;;;;;13.20;1.00;;;;;;5116658;27;20487;-73
2023/04/29 08:28:26;;;;;;;6.28;4.03;;;13.10;99.90;;;;;;5115011;28;19916;-73
2023/04/29 08:30:52;;;;;;;6.93;4.05;;;13.30;1.00;;;;;;5113730;28;20048;-72
2023/04/29 08:33:18;;;;;;;4.65;3.30;;;13.30;1.00;;;;;;5113188;28;20398;-72
2023/04/29 08:35:44;;;;;;;7.47;4.00;;;13.60;1.00;;;;;;5113503;28;20113;-73
2023/04/29 08:38:09;;;;;;;8.48;4.28;;;13.10;1.00;;;;;;5113326;28;20431;-73
2023/04/29 08:40:40;;;;;;;6.40;4.03;;;13.20;1.00;;;;;;5114463;28;20040;-72
2023/04/29 08:43:08;;;;;;;6.75;4.10;;;12.90;1.00;;;;;;5095929;28;20058;-72
2023/04/29 08:45:35;;;;;;;8.00;3.78;;;13.00;1.00;;;;;;5112982;28;20123;-73
2023/04/29 08:48:07;;;;;;;6.55;4.10;;;13.00;1.00;;;;;;5113252;28;20047;-72
2023/04/29 08:50:39;;;;;;;6.00;3.85;;;13.00;1.00;;;;;;5113347;28;20043;-72
2023/04/29 08:53:06;;;;;;;6.45;4.03;;;13.30;1.00;;;;;;5096021;28;20046;-74
2023/04/29 08:55:40;;;;;;;6.93;3.90;;;13.10;1.00;;;;;;5112742;28;20130;-74
2023/04/29 08:58:07;;;;;;;6.97;3.47;;;13.10;99.90;;;;;;5112979;28;20052;-73
2023/04/29 09:00:34;;;;;;;8.20;4.40;;;13.20;99.90;;;;;;5112884;28;20055;-73
2023/04/29 09:03:03;;;;;;;9.23;4.10;;;13.10;99.90;;;;;;5095544;28;20113;-73
2023/04/29 09:05:29;;;;;;;6.53;3.40;;;13.20;99.90;;;;;;5112694;28;20078;-74
2023/04/29 09:07:58;;;;;;;4.45;2.75;;;13.30;99.90;;;;;;5114249;28;20363;-73
2023/04/29 09:10:25;;;;;;;5.38;2.92;;;13.50;99.90;;;;;;5112489;28;20047;-73
2023/04/29 09:12:50;;;;;;;7.05;3.00;;;13.80;99.90;;;;;;5112587;28;20043;-73
2023/04/29 09:15:16;;;;;;;6.22;3.60;;;13.80;99.90;;;;;;5095588;28;20050;-72
2023/04/29 09:17:45;;;;;;;5.03;3.13;;;13.80;99.90;;;;;;5112901;28;20126;-73
2023/04/29 09:20:20;;;;;;;5.32;3.30;;;13.80;99.90;;;;;;5112423;28;20046;-73
2023/04/29 09:22:53;;;;;;;6.28;3.80;;;13.80;99.90;;;;;;5112304;28;20150;-73
2023/04/29 09:25:19;;;;;;;4.43;3.20;;;13.80;99.90;;;;;;5106803;27;20087;-73
2023/04/29 09:27:45;;;;;;;4.47;2.95;;;13.90;99.90;;;;;;5131816;27;20164;-73
2023/04/29 09:30:12;;;;;;;6.38;4.30;;;14.30;99.90;;;;;;5115748;27;20113;-73
2023/04/29 09:32:38;;;;;;;6.45;3.45;;;14.40;99.90;;;;;;5132953;27;20050;-73
2023/04/29 09:35:24;;;;;;;;;;;14.20;99.90;;;;;;5115912;27;20043;-73
2023/04/29 09:37:53;;;;;;;6.03;3.90;;;14.30;99.90;;;;;;5132530;27;19916;-73
2023/04/29 09:40:33;;;;;;;8.35;4.43;;;14.20;99.90;;;;;;5132777;27;20150;-73
2023/04/29 09:42:59;;;;;;;5.75;3.50;;;14.30;93.80;;;;;;5114864;27;20046;-73
2023/04/29 09:45:32;;;;;;;;;;;14.60;99.90;;;;;;5115878;27;20055;-73
2023/04/29 09:48:05;;;;;;;5.72;3.25;;;14.40;25.40;;;;;;5132613;27;19919;-73
2023/04/29 09:50:37;;;;;;;5.80;3.95;;;14.50;55.50;;;;;;5133202;27;20066;-74
2023/04/29 09:53:04;;;;;;;6.38;3.45;;;14.50;52.70;;;;;;5131791;27;20427;-74
2023/04/29 09:55:30;;;;;;;5.32;2.85;;;14.80;64.90;;;;;;5132206;27;20094;-74
2023/04/29 09:57:57;;;;;;;4.78;2.83;;;15.10;99.90;;;;;;5114966;27;20078;-74
2023/04/29 10:00:24;;;;;;;6.18;3.25;;;15.10;99.90;;;;;;5132089;27;20081;-74
2023/04/29 10:02:52;;;;;;;5.32;3.00;;;15.00;99.90;;;;;;5132088;27;20047;-74
2023/04/29 10:05:20;;;;;;;5.82;3.30;;;14.80;99.90;;;;;;5133648;27;20065;-74
2023/04/29 10:07:48;;;;;;;5.25;3.80;;;14.80;99.90;;;;;;5133604;27;20050;-74
2023/04/29 10:10:15;;;;;;;6.07;3.63;;;14.70;99.90;;;;;;5132244;27;20039;-74
2023/04/29 10:12:43;;;;;;;5.60;3.50;;;14.80;82.60;;;;;;5133196;27;20042;-73
2023/04/29 10:15:24;;;;;;;5.50;3.45;;;15.10;46.50;;;;;;5131900;27;20043;-74
2023/04/29 10:17:57;;;;;;;7.15;4.25;;;15.40;91.90;;;;;;5131917;27;20054;-73
2023/04/29 10:20:24;;;;;;;8.07;4.47;;;15.30;86.80;;;;;;5131977;27;20047;-73
2023/04/29 10:22:51;;;;;;;9.27;4.65;;;15.10;47.70;;;;;;5131778;27;20046;-70
2023/04/29 10:25:19;;;;;;;6.43;3.97;;;14.90;54.20;;;;;;5132928;27;20114;-72
2023/04/29 10:27:47;;;;;;;6.85;4.40;;;15.30;61.20;;;;;;5114596;27;20062;-72
2023/04/29 10:30:15;;;;;;;5.65;3.50;;;15.20;12.00;;;;;;5132803;27;20084;-72
2023/04/29 10:32:42;;;;;;;8.32;4.20;;;15.00;1.00;;;;;;5131544;27;20486;-73
2023/04/29 10:35:10;;;;;;;7.53;3.30;;;15.10;1.30;;;;;;5132729;27;20035;-73
2023/04/29 10:37:37;;;;;;;7.43;3.67;;;14.80;1.00;;;;;;5114645;27;20106;-72
2023/04/29 10:40:09;;;;;;;3.85;2.72;;;14.90;1.00;;;;;;5131671;27;20047;-72
2023/04/29 10:42:41;;;;;;;4.97;2.58;;;15.20;1.00;;;;;;5131732;27;20101;-73
2023/04/29 10:45:17;;;;;;;8.07;2.83;;;15.20;1.00;;;;;;5131227;27;20497;-72
2023/04/29 10:48:07;;;;;;;5.90;2.58;;;15.10;1.00;;;;;;5131503;27;20395;-73
2023/04/29 10:50:48;;;;;;;3.75;1.98;;;15.50;99.90;;;;;;5116480;27;20051;-72
2023/04/29 10:53:16;;;;;;;3.40;1.55;;;15.70;99.90;;;;;;5131173;27;20126;-73
2023/04/29 10:55:45;;;;;;;3.17;1.60;;;15.50;99.90;;;;;;5131306;27;20054;-72
2023/04/29 10:58:34;;;;;;;2.55;1.42;;;15.30;99.90;;;;;;5132311;27;20054;-73
2023/04/29 11:01:00;;;;;;;3.05;1.60;;;15.40;99.90;;;;;;5131024;27;20051;-72
2023/04/29 11:03:46;;;;;;;3.65;1.70;;;15.40;99.90;;;;;;5130823;27;20467;-72
2023/04/29 11:06:12;;;;;;;4.15;1.58;;;15.20;99.90;;;;;;5113854;27;20068;-73
2023/04/29 11:08:41;;;;;;;3.58;1.70;;;15.30;99.90;;;;;;5130578;27;20428;-72
2023/04/29 11:11:08;;;;;;;1.95;1.35;;;15.00;99.90;;;;;;5131084;27;20085;-72
2023/04/29 11:13:38;;;;;;;2.05;1.30;;;15.40;99.90;;;;;;5113517;27;20051;-73
2023/04/29 11:16:09;;;;;;;3.00;1.30;;;15.50;99.90;;;;;;5130623;27;20042;-73
2023/04/29 11:18:36;;;;;;;1.80;1.40;;;15.40;99.90;;;;;;5130726;27;20043;-72
2023/04/29 11:21:12;;;;;;;2.00;1.30;;;15.60;99.90;;;;;;5130679;27;20055;-72
2023/04/29 11:23:44;;;;;;;4.63;2.08;;;15.90;99.90;;;;;;5130570;27;20049;-72
2023/04/29 11:26:09;;;;;;;2.33;1.40;;;15.50;99.90;;;;;;5130644;27;20127;-72
2023/04/29 11:28:35;;;;;;;3.08;1.50;;;15.60;99.90;;;;;;5130729;27;20608;-73
2023/04/29 11:31:04;;;;;;;3.78;1.52;;;15.80;99.90;;;;;;5130409;27;20549;-72
2023/04/29 11:33:31;;;;;;;2.55;1.40;;;16.00;99.90;;;;;;5130590;27;20047;-73
2023/04/29 11:35:57;;;;;;;4.25;2.10;;;16.50;99.90;;;;;;5130602;27;20046;-72
2023/04/29 11:38:32;;;;;;;4.68;1.85;;;16.40;99.90;;;;;;5130437;27;20366;-73
2023/04/29 11:40:59;;;;;;;3.63;2.17;;;16.30;99.90;;;;;;5131648;27;20134;-73
2023/04/29 11:43:25;;;;;;;5.10;1.92;;;15.50;99.90;;;;;;5130496;27;20074;-72
2023/04/29 11:45:52;;;;;;;4.57;2.22;;;14.90;99.90;;;;;;5130159;27;20054;-72
2023/04/29 11:48:25;;;;;;;4.93;2.10;;;15.30;99.90;;;;;;5113142;27;20059;-72
2023/04/29 11:50:55;;;;;;;3.88;2.47;;;15.50;99.90;;;;;;5130004;27;20470;-72
2023/04/29 11:53:24;;;;;;;4.72;2.47;;;15.50;99.90;;;;;;5130052;27;20043;-72
2023/04/29 11:55:52;;;;;;;4.68;2.17;;;15.40;99.90;;;;;;5130368;27;20452;-73
2023/04/29 11:58:20;;;;;;;3.30;2.10;;;15.30;99.90;;;;;;5130095;28;20054;-73
2023/04/29 12:00:47;;;;;;;3.15;1.58;;;15.10;99.90;;;;;;5129998;27;20130;-73
2023/04/29 12:03:16;;;;;;;;;;;15.60;99.90;;;;;;5130278;28;20439;-73
2023/04/29 12:05:55;;;;;;;4.38;1.60;;;15.50;99.90;;;;;;5129812;28;19919;-72
2023/04/29 12:08:25;;;;;;;3.83;1.67;;;15.30;99.90;;;;;;5130189;27;20032;-72
2023/04/29 12:10:54;;;;;;;3.30;1.40;;;15.30;99.90;;;;;;5129910;28;20046;-72
2023/04/29 12:13:23;;;;;;;2.22;1.25;;;15.60;99.90;;;;;;5129921;28;20043;-73
2023/04/29 12:15:50;;;;;;;2.22;1.27;;;15.40;99.90;;;;;;5129932;28;20510;-73
2023/04/29 12:18:17;;;;;;;2.88;1.30;;;15.40;99.90;;;;;;5130245;27;20039;-73
2023/04/29 12:20:44;;;;;;;3.50;1.75;;;15.90;99.90;;;;;;5129829;28;20053;-73
2023/04/29 12:23:11;;;;;;;2.58;1.48;;;15.90;99.90;;;;;;5129981;28;20055;-68
2023/04/29 12:25:36;;;;;;;2.70;1.50;;;16.00;99.90;;;;;;5112640;27;20050;-69
2023/04/29 12:28:03;;;;;;;2.97;1.30;;;16.30;99.90;;;;;;5129768;28;20347;-68
2023/04/29 12:30:29;;;;;;;3.95;1.60;;;16.20;99.90;;;;;;5129632;28;20493;-69
2023/04/29 12:32:55;;;;;;;;;;;16.20;99.90;;;;;;5113361;28;20039;-69
2023/04/29 12:35:20;;;;;;;3.00;1.60;;;16.30;99.90;;;;;;5129549;27;20239;-69
2023/04/29 12:37:49;;;;;;;3.55;1.20;;;16.40;99.90;;;;;;5112631;28;20090;-68
2023/04/29 12:40:16;;;;;;;4.18;1.30;;;16.50;99.90;;;;;;5130059;28;20065;-68
2023/04/29 12:42:43;;;;;;;2.33;1.20;;;16.60;99.90;;;;;;5129805;27;20095;-68
2023/04/29 12:45:25;;;;;;;2.20;1.10;;;16.30;99.90;;;;;;5112337;28;20047;-69
2023/04/29 12:47:52;;;;;;;2.00;1.30;;;16.30;99.90;;;;;;5129627;28;20047;-69
2023/04/29 12:50:18;;;;;;;2.75;1.30;;;15.90;99.90;;;;;;5095776;28;20046;-69
2023/04/29 12:52:44;;;;;;;1.95;1.00;;;16.10;99.90;;;;;;5130781;27;20118;-68